LTAC Airport Information

Runway Information
Runway 03L Length 12303 ft width 148 ft
Elevation 3100 ft Threshold 1148 ft Heading 36
Runway 21R Length 12303 ft Width 148 ft
Elevation 3123 ft Threshold 0 ft Heading 216
Runway 03R Length 12303 ft width 197 ft
Elevation 3097 ft Threshold 0 ft Heading 35
Runway 21L Length 12303 ft Width 197 ft
Elevation 3125 ft Threshold 0 ft Heading 215
Airport Frequencies
Type APP Name APP Frequency 119.1 MHZ
Type ATIS Name ATIS Frequency 123.6 MHZ
Type GND Name GND Frequency 121.9 MHZ
Type TWR Name TWR Frequency 118.1 MHZ
Airport Navaids
Type VOR-DME Name Cubuk Frequency 114300 KHZ
Airport Weather Information & NOTAM
ADDS - METARS form results

(2305 UTC 19 September 2018)
Data provider http://aviationweather.gov/metar/data/
 
METAR text: LTAC 192250Z 01008KT CAVOK 10/M01 Q1020 NOSIG
Conditions at: LTAC (ANKARA/ESENBOGA , TR) observed 2250 UTC 19 September 2018
Temperature: 10.0°C (50°F)
Dewpoint: -1.0°C (30°F) [RH = 46%]
Pressure (altimeter): 30.12 inches Hg (1020.0 mb)
Winds: from the N (10 degrees) at 9 MPH (8 knots; 4.1 m/s)
Visibility: 6 or more miles (10+ km)
Ceiling: ceiling and visibility are OK
Clouds: unknown
Weather: no significant weather observed at this time

METAR text: LTAC 192220Z 35007KT CAVOK 10/M01 Q1021 NOSIG
Conditions at: LTAC (ANKARA/ESENBOGA , TR) observed 2220 UTC 19 September 2018
Temperature: 10.0°C (50°F)
Dewpoint: -1.0°C (30°F) [RH = 46%]
Pressure (altimeter): 30.15 inches Hg (1021.0 mb)
Winds: from the N (350 degrees) at 8 MPH (7 knots; 3.6 m/s)
Visibility: 6 or more miles (10+ km)
Ceiling: ceiling and visibility are OK
Clouds: unknown
Weather: no significant weather observed at this time

Forecast for: LTAC (ANKARA/ESENBOGA , TR)
Text: TAF LTAC 192240Z 2000/2024 03007KT CAVOK
Forecast period: 0000 to 0700 UTC 20 September 2018
Forecast type: FROM: standard forecast or significant change
Winds: from the NNE (30 degrees) at 8 MPH (7 knots; 3.6 m/s)
Visibility: 6 or more miles 10+ km)
Ceiling: unknown
Clouds: missing
Weather: NSW  (no significant weather)
Text: BECMG 2007/2009 SCT040
Forecast period: 0700 to 1500 UTC 20 September 2018
Forecast type: BECOMING: Conditions expected to become as follows by 0900 UTC 20 September 2018
Winds: from the NNE (30 degrees) at 8 MPH (7 knots; 3.6 m/s)
Visibility: 6 or more miles 10+ km)
Ceiling: at least 12,000 feet AGL
Clouds: scattered clouds at 4000 feet AGL
Weather: NSW  (no significant weather)
Text: BECMG 2015/2018 CAVOK
Forecast period: 1500 UTC 20 September 2018 to 0000 UTC 21 September 2018
Forecast type: BECOMING: Conditions expected to become as follows by 1800 UTC 20 September 2018
Winds: from the NNE (30 degrees) at 8 MPH (7 knots; 3.6 m/s)
Visibility: 6 or more miles 10+ km)
Ceiling: unknown
Clouds: missing
Weather: NSW  (no significant weather)